createdAt,value
2018-05-28T00:00:18.980Z,10.27
2018-05-28T00:02:45.197Z,10.20
2018-05-28T00:05:11.399Z,9.67
2018-05-28T00:07:37.595Z,9.20
2018-05-28T00:10:03.788Z,10.63
2018-05-28T00:12:29.990Z,8.97
2018-05-28T00:14:56.181Z,10.27
2018-05-28T00:17:23.131Z,9.60
2018-05-28T00:19:50.090Z,9.70
2018-05-28T00:22:17.023Z,11.63
2018-05-28T00:24:43.232Z,11.03
2018-05-28T00:27:09.449Z,10.10
2018-05-28T00:29:35.695Z,10.23
2018-05-28T00:32:02.103Z,10.60
2018-05-28T00:34:28.307Z,9.77
2018-05-28T00:36:54.503Z,9.80
2018-05-28T00:39:20.707Z,11.03
2018-05-28T00:41:46.924Z,11.10
2018-05-28T00:44:13.111Z,11.23
2018-05-28T00:46:39.335Z,10.93
2018-05-28T00:49:05.535Z,10.20
2018-05-28T00:51:31.749Z,11.97
2018-05-28T00:53:57.968Z,10.97
2018-05-28T00:56:24.155Z,10.30
2018-05-28T00:58:50.344Z,10.77
2018-05-28T01:01:16.547Z,11.40
2018-05-28T01:03:42.756Z,11.63
2018-05-28T01:06:08.946Z,11.90
2018-05-28T01:08:35.321Z,10.43
2018-05-28T01:11:01.531Z,11.07
2018-05-28T01:13:27.729Z,11.90
2018-05-28T01:15:54.679Z,11.67
2018-05-28T01:18:21.592Z,11.13
2018-05-28T01:20:47.804Z,10.43
2018-05-28T01:23:14.037Z,11.40
2018-05-28T01:25:40.243Z,11.47
2018-05-28T01:28:06.460Z,11.73
2018-05-28T01:30:32.671Z,11.10
2018-05-28T01:32:58.882Z,12.23
2018-05-28T01:35:25.831Z,11.70
2018-05-28T01:37:52.960Z,11.53
2018-05-28T01:40:19.918Z,11.83
2018-05-28T01:42:46.856Z,11.83
2018-05-28T01:45:13.056Z,11.90
2018-05-28T01:47:39.243Z,12.97
2018-05-28T01:50:05.467Z,13.47
2018-05-28T01:52:31.687Z,13.37
2018-05-28T01:54:58.652Z,12.83
2018-05-28T01:57:24.841Z,13.93
2018-05-28T01:59:51.049Z,13.53
2018-05-28T02:02:17.251Z,13.67
2018-05-28T02:04:43.456Z,13.63
2018-05-28T02:07:09.663Z,14.07
2018-05-28T02:09:36.618Z,14.40
2018-05-28T02:12:03.563Z,15.27
2018-05-28T02:14:30.498Z,14.43
2018-05-28T02:16:56.703Z,14.13
2018-05-28T02:19:22.902Z,14.63
2018-05-28T02:21:49.171Z,14.00
2018-05-28T02:24:15.377Z,13.47
2018-05-28T02:26:41.555Z,13.93
2018-05-28T02:29:08.652Z,13.63
2018-05-28T02:31:34.923Z,14.67
2018-05-28T02:34:01.848Z,14.17
2018-05-28T02:36:28.054Z,14.57
2018-05-28T02:38:54.243Z,13.73
2018-05-28T02:41:20.442Z,14.37
2018-05-28T02:43:46.656Z,14.17
2018-05-28T02:46:12.864Z,14.13
2018-05-28T02:48:39.045Z,13.43
2018-05-28T02:51:05.275Z,14.77
2018-05-28T02:53:31.465Z,13.03
2018-05-28T02:55:57.660Z,15.40
2018-05-28T02:58:23.901Z,15.27
2018-05-28T03:00:50.112Z,15.50
2018-05-28T03:03:16.324Z,15.17
2018-05-28T03:05:42.784Z,16.93
2018-05-28T03:08:08.968Z,15.00
2018-05-28T03:10:35.920Z,15.07
2018-05-28T03:13:02.118Z,15.50
2018-05-28T03:15:29.885Z,15.03
2018-05-28T03:17:56.079Z,15.63
2018-05-28T03:20:22.308Z,14.50
2018-05-28T03:22:48.565Z,14.47
2018-05-28T03:25:14.750Z,16.20
2018-05-28T03:27:40.973Z,14.80
2018-05-28T03:30:07.164Z,15.77
2018-05-28T03:32:34.083Z,15.70
2018-05-28T03:35:00.272Z,14.87
2018-05-28T03:37:26.461Z,14.30
2018-05-28T03:39:52.811Z,13.90
2018-05-28T03:42:19.745Z,14.67
2018-05-28T03:44:46.667Z,14.00
2018-05-28T03:47:12.853Z,14.63
2018-05-28T03:49:39.036Z,15.40
2018-05-28T03:52:05.251Z,14.97
2018-05-28T03:54:31.445Z,15.67
2018-05-28T03:56:57.648Z,13.80
2018-05-28T03:59:23.879Z,14.77
2018-05-28T04:02:02.635Z,13.80
2018-05-28T04:04:28.810Z,14.43
2018-05-28T04:06:54.957Z,16.27
2018-05-28T04:09:33.674Z,16.43
2018-05-28T04:11:59.864Z,15.33
2018-05-28T04:14:26.046Z,16.37
2018-05-28T04:16:52.494Z,18.37
2018-05-28T04:19:18.696Z,17.20
2018-05-28T04:21:44.896Z,18.00
2018-05-28T04:24:11.107Z,17.10
2018-05-28T04:26:37.294Z,16.47
2018-05-28T04:29:03.471Z,16.40
2018-05-28T04:31:29.657Z,16.07
2018-05-28T04:33:55.843Z,16.13
2018-05-28T04:36:22.804Z,16.80
2018-05-28T04:38:49.748Z,16.07
2018-05-28T04:41:15.969Z,15.23
2018-05-28T04:43:42.905Z,16.17
2018-05-28T04:46:09.400Z,15.93
2018-05-28T04:48:35.662Z,15.43
2018-05-28T04:51:01.854Z,15.13
2018-05-28T04:53:28.275Z,15.23
2018-05-28T04:55:54.468Z,15.77
2018-05-28T04:58:21.427Z,16.60
2018-05-28T05:00:47.617Z,15.80
2018-05-28T05:03:13.802Z,16.07
2018-05-28T05:05:41.034Z,16.67
2018-05-28T05:08:07.211Z,16.30
2018-05-28T05:10:33.416Z,15.13
2018-05-28T05:12:59.627Z,16.93
2018-05-28T05:15:25.882Z,18.83
2018-05-28T05:17:52.161Z,17.57
2018-05-28T05:20:19.091Z,19.47
2018-05-28T05:22:46.011Z,19.67
2018-05-28T05:25:12.221Z,18.90
2018-05-28T05:27:38.433Z,22.70
2018-05-28T05:30:04.637Z,23.07
2018-05-28T05:32:30.831Z,23.03
2018-05-28T05:34:57.026Z,23.67
2018-05-28T05:37:23.220Z,23.30
2018-05-28T05:39:49.430Z,24.07
2018-05-28T05:42:16.453Z,23.03
2018-05-28T05:44:42.635Z,24.33
2018-05-28T05:47:08.828Z,23.50
2018-05-28T05:49:35.046Z,25.57
2018-05-28T05:52:01.232Z,26.33
2018-05-28T05:54:27.466Z,24.03
2018-05-28T05:56:53.900Z,22.93
2018-05-28T05:59:20.088Z,23.60
2018-05-28T06:01:46.332Z,23.20
2018-05-28T06:04:12.552Z,22.07
2018-05-28T06:06:38.789Z,20.77
2018-05-28T06:09:04.996Z,21.73
2018-05-28T06:11:31.221Z,20.93
2018-05-28T06:13:57.419Z,20.90
2018-05-28T06:16:23.627Z,19.13
2018-05-28T06:18:49.831Z,21.43
2018-05-28T06:21:16.042Z,20.23
2018-05-28T06:23:43.031Z,19.93
2018-05-28T06:26:09.232Z,19.02
2018-05-28T06:28:35.432Z,20.57
2018-05-28T06:31:01.635Z,18.80
2018-05-28T06:33:27.857Z,17.02
2018-05-28T06:35:54.061Z,18.65
2018-05-28T06:38:20.278Z,19.00
2018-05-28T06:40:46.725Z,17.02
2018-05-28T06:43:12.947Z,16.98
2018-05-28T06:45:39.180Z,17.27
2018-05-28T06:48:05.392Z,18.70
2018-05-28T06:50:31.599Z,17.58
2018-05-28T06:52:57.797Z,16.20
2018-05-28T06:55:24.028Z,15.53
2018-05-28T06:57:50.252Z,16.55
2018-05-28T07:00:16.497Z,15.55
2018-05-28T07:02:42.727Z,15.20
2018-05-28T07:05:08.931Z,15.18
2018-05-28T07:07:35.143Z,15.35
2018-05-28T07:10:01.321Z,15.02
2018-05-28T07:12:28.268Z,15.68
2018-05-28T07:14:55.251Z,14.47
2018-05-28T07:17:21.448Z,14.17
2018-05-28T07:19:48.443Z,13.30
2018-05-28T07:22:14.637Z,13.73
2018-05-28T07:24:40.825Z,13.02
2018-05-28T07:27:07.021Z,12.73
2018-05-28T07:29:33.249Z,12.15
2018-05-28T07:31:59.436Z,12.87
2018-05-28T07:34:25.643Z,13.05
2018-05-28T07:36:51.850Z,13.45
2018-05-28T07:39:18.056Z,15.40
2018-05-28T07:41:44.288Z,15.27
2018-05-28T07:44:10.499Z,14.87
2018-05-28T07:46:36.712Z,16.23
2018-05-28T07:49:02.943Z,16.50
2018-05-28T07:51:29.136Z,14.33
2018-05-28T07:53:55.312Z,15.43
2018-05-28T07:56:21.508Z,14.17
2018-05-28T07:58:47.728Z,13.93
2018-05-28T08:01:14.656Z,13.10
2018-05-28T08:03:40.921Z,14.27
2018-05-28T08:06:07.124Z,13.20
2018-05-28T08:08:34.071Z,12.73
2018-05-28T08:11:01.026Z,12.97
2018-05-28T08:13:27.248Z,10.73
2018-05-28T08:15:54.235Z,11.12
2018-05-28T08:18:20.462Z,11.50
2018-05-28T08:20:46.657Z,11.97
2018-05-28T08:23:13.593Z,10.80
2018-05-28T08:25:40.079Z,10.97
2018-05-28T08:28:06.320Z,10.50
2018-05-28T08:30:32.556Z,10.73
2018-05-28T08:32:58.791Z,10.10
2018-05-28T08:35:24.979Z,10.90
2018-05-28T08:37:53.067Z,11.57
2018-05-28T08:40:19.295Z,10.33
2018-05-28T08:42:45.488Z,10.80
2018-05-28T08:45:11.693Z,11.27
2018-05-28T08:47:38.666Z,9.07
2018-05-28T08:50:04.891Z,10.02
2018-05-28T08:52:31.832Z,9.37
2018-05-28T08:54:58.691Z,10.05
2018-05-28T08:57:24.907Z,10.63
2018-05-28T08:59:51.127Z,11.05
2018-05-28T09:02:17.365Z,12.32
2018-05-28T09:04:44.321Z,10.50
2018-05-28T09:07:11.277Z,11.57
2018-05-28T09:09:37.520Z,12.00
2018-05-28T09:12:03.755Z,11.90
2018-05-28T09:14:29.966Z,10.77
2018-05-28T09:16:56.193Z,10.88
2018-05-28T09:19:22.390Z,11.63
2018-05-28T09:21:48.597Z,10.93
2018-05-28T09:24:14.837Z,11.63
2018-05-28T09:26:41.033Z,10.57
2018-05-28T09:29:07.223Z,9.88
2018-05-28T09:31:34.423Z,10.88
2018-05-28T09:34:00.644Z,9.98
2018-05-28T09:36:26.839Z,9.18
2018-05-28T09:38:53.051Z,9.18
2018-05-28T09:41:19.996Z,8.45
2018-05-28T09:43:46.953Z,9.15
2018-05-28T09:46:13.879Z,7.95
2018-05-28T09:48:40.822Z,7.80
2018-05-28T09:51:07.787Z,8.18
2018-05-28T09:53:34.807Z,7.78
2018-05-28T09:56:00.998Z,7.28
2018-05-28T09:58:27.205Z,7.00
2018-05-28T10:00:53.420Z,8.30
2018-05-28T10:03:19.623Z,7.70
2018-05-28T10:05:47.308Z,7.10
2018-05-28T10:08:13.533Z,7.90
2018-05-28T10:10:39.719Z,7.87
2018-05-28T10:13:05.935Z,7.03
2018-05-28T10:15:32.163Z,7.28
2018-05-28T10:17:58.373Z,6.85
2018-05-28T10:20:31.652Z,6.95
2018-05-28T10:22:57.847Z,5.57
2018-05-28T10:25:24.031Z,6.50
2018-05-28T10:27:50.238Z,6.70
2018-05-28T10:30:16.417Z,5.82
2018-05-28T10:32:42.609Z,4.93
2018-05-28T10:35:08.814Z,5.25
2018-05-28T10:37:35.036Z,5.43
2018-05-28T10:40:02.024Z,5.28
2018-05-28T10:42:28.976Z,5.72
2018-05-28T10:44:55.153Z,4.80
2018-05-28T10:47:21.353Z,4.93
2018-05-28T10:49:48.299Z,4.62
2018-05-28T10:52:15.244Z,5.43
2018-05-28T10:54:41.443Z,4.68
2018-05-28T10:57:07.668Z,5.35
2018-05-28T10:59:33.876Z,5.25
2018-05-28T11:02:00.072Z,4.68
2018-05-28T11:04:26.299Z,4.32
2018-05-28T11:06:52.502Z,5.40
2018-05-28T11:09:19.436Z,5.10
2018-05-28T11:11:45.652Z,4.80
2018-05-28T11:14:11.844Z,4.68
2018-05-28T11:16:38.041Z,4.20
2018-05-28T11:19:04.268Z,4.80
2018-05-28T11:21:31.201Z,5.00
2018-05-28T11:23:58.139Z,4.12
2018-05-28T11:26:24.351Z,4.75
2018-05-28T11:28:50.543Z,4.80
2018-05-28T11:31:16.751Z,4.32
2018-05-28T11:33:42.980Z,5.10
2018-05-28T11:36:09.180Z,5.07
2018-05-28T11:38:35.369Z,4.95
2018-05-28T11:41:01.601Z,5.40
2018-05-28T11:43:27.812Z,5.07
2018-05-28T11:45:54.040Z,4.70
2018-05-28T11:48:20.915Z,4.93
2018-05-28T11:50:47.119Z,5.12
2018-05-28T11:53:13.284Z,4.85
2018-05-28T11:55:39.496Z,5.70
2018-05-28T11:58:05.697Z,4.90
2018-05-28T12:00:31.949Z,4.47
2018-05-28T12:02:58.124Z,5.05
2018-05-28T12:05:24.303Z,5.53
2018-05-28T12:07:50.518Z,5.03
2018-05-28T12:10:16.699Z,4.90
2018-05-28T12:12:43.681Z,4.53
2018-05-28T12:15:09.901Z,4.47
2018-05-28T12:17:36.127Z,5.03
2018-05-28T12:20:02.332Z,4.53
2018-05-28T12:22:29.251Z,4.05
2018-05-28T12:24:55.457Z,3.95
2018-05-28T12:27:21.657Z,3.90
2018-05-28T12:29:47.841Z,3.53
2018-05-28T12:32:15.036Z,3.45
2018-05-28T12:34:41.252Z,3.62
2018-05-28T12:37:07.433Z,3.58
2018-05-28T12:39:33.624Z,3.70
2018-05-28T12:41:59.815Z,3.42
2018-05-28T12:44:26.737Z,3.45
2018-05-28T12:46:53.687Z,3.53
2018-05-28T12:49:20.643Z,4.07
2018-05-28T12:51:47.599Z,3.65
2018-05-28T12:54:13.976Z,3.30
2018-05-28T12:56:40.170Z,3.08
2018-05-28T12:59:06.352Z,3.30
2018-05-28T13:01:32.535Z,3.15
2018-05-28T13:03:58.755Z,3.30
2018-05-28T13:06:24.931Z,3.17
2018-05-28T13:08:51.103Z,3.40
2018-05-28T13:11:18.032Z,3.33
2018-05-28T13:13:44.203Z,3.30
2018-05-28T13:16:10.380Z,2.67
2018-05-28T13:18:36.539Z,3.30
2018-05-28T13:21:03.427Z,3.47
2018-05-28T13:23:29.620Z,3.30
2018-05-28T13:25:55.799Z,3.75
2018-05-28T13:28:21.988Z,3.45
2018-05-28T13:30:48.181Z,3.00
2018-05-28T13:33:14.382Z,3.10
2018-05-28T13:35:41.243Z,3.30
2018-05-28T13:38:07.384Z,3.53
2018-05-28T13:40:34.264Z,2.95
2018-05-28T13:43:00.438Z,3.50
2018-05-28T13:45:26.575Z,3.25
2018-05-28T13:47:52.752Z,3.35
2018-05-28T13:50:19.752Z,3.20
2018-05-28T13:52:45.948Z,3.70
2018-05-28T13:55:12.139Z,3.20
2018-05-28T13:57:38.347Z,3.60
2018-05-28T14:00:04.563Z,3.70
2018-05-28T14:02:30.732Z,3.35
2018-05-28T14:04:56.924Z,3.37
2018-05-28T14:07:23.059Z,3.50
2018-05-28T14:09:49.960Z,3.55
2018-05-28T14:12:16.912Z,3.95
2018-05-28T14:14:43.819Z,3.00
2018-05-28T14:17:10.101Z,3.37
2018-05-28T14:19:37.046Z,3.30
2018-05-28T14:22:03.960Z,3.12
2018-05-28T14:24:30.228Z,3.53
2018-05-28T14:26:56.401Z,3.78
2018-05-28T14:29:22.585Z,3.55
2018-05-28T14:31:48.743Z,3.90
2018-05-28T14:34:14.884Z,3.40
2018-05-28T14:36:41.116Z,3.47
2018-05-28T14:39:07.296Z,3.85
2018-05-28T14:41:34.184Z,3.28
2018-05-28T14:44:00.388Z,3.67
2018-05-28T14:46:26.531Z,3.45
2018-05-28T14:48:52.930Z,4.10
2018-05-28T14:51:19.104Z,4.12
2018-05-28T14:53:45.488Z,4.62
2018-05-28T14:56:11.695Z,4.65
2018-05-28T14:58:37.843Z,3.85
2018-05-28T15:01:04.047Z,3.72
2018-05-28T15:03:30.226Z,4.03
2018-05-28T15:05:56.386Z,3.70
2018-05-28T15:08:23.310Z,3.83
2018-05-28T15:10:49.707Z,3.92
2018-05-28T15:13:15.887Z,3.85
2018-05-28T15:15:42.072Z,4.03
2018-05-28T15:18:08.277Z,4.03
2018-05-28T15:20:34.533Z,4.40
2018-05-28T15:23:00.667Z,3.80
2018-05-28T15:25:26.799Z,3.90
2018-05-28T15:27:52.997Z,4.15
2018-05-28T15:30:19.224Z,4.03
2018-05-28T15:32:46.101Z,4.00
2018-05-28T15:35:12.280Z,3.97
2018-05-28T15:37:38.447Z,3.97
2018-05-28T15:40:04.643Z,3.72
2018-05-28T15:42:30.815Z,3.55
2018-05-28T15:44:57.747Z,3.65
2018-05-28T15:47:23.931Z,3.97
2018-05-28T15:49:50.119Z,3.60
2018-05-28T15:52:16.340Z,4.28
2018-05-28T15:54:43.554Z,4.05
2018-05-28T15:57:09.733Z,3.62
2018-05-28T15:59:35.915Z,4.00
2018-05-28T16:02:02.112Z,4.45
2018-05-28T16:04:28.305Z,4.03
2018-05-28T16:06:54.448Z,4.28
2018-05-28T16:09:20.612Z,4.57
2018-05-28T16:11:46.841Z,3.80
2018-05-28T16:14:13.038Z,3.83
2018-05-28T16:16:40.226Z,4.18
2018-05-28T16:19:06.431Z,3.95
2018-05-28T16:21:32.599Z,3.70
2018-05-28T16:23:58.752Z,4.55
2018-05-28T16:26:24.927Z,4.25
2018-05-28T16:28:51.124Z,4.68
2018-05-28T16:31:18.295Z,3.80
2018-05-28T16:33:45.176Z,4.25
2018-05-28T16:36:11.348Z,3.95
2018-05-28T16:38:37.785Z,4.10
2018-05-28T16:41:03.977Z,4.25
2018-05-28T16:43:30.124Z,4.20
2018-05-28T16:45:57.051Z,3.97
2018-05-28T16:48:23.520Z,3.97
2018-05-28T16:50:50.408Z,4.15
2018-05-28T16:53:16.747Z,4.40
2018-05-28T16:55:42.911Z,3.78
2018-05-28T16:58:09.092Z,4.18
2018-05-28T17:00:35.347Z,4.68
2018-05-28T17:03:01.480Z,3.70
2018-05-28T17:05:28.404Z,4.57
2018-05-28T17:07:54.903Z,3.90
2018-05-28T17:10:21.113Z,3.92
2018-05-28T17:12:48.073Z,3.85
2018-05-28T17:15:14.949Z,4.22
2018-05-28T17:17:41.103Z,3.75
2018-05-28T17:20:07.271Z,4.20
2018-05-28T17:22:33.429Z,3.90
2018-05-28T17:24:59.567Z,4.03
2018-05-28T17:27:25.740Z,4.00
2018-05-28T17:29:51.968Z,4.20
2018-05-28T17:32:18.177Z,4.40
2018-05-28T17:34:44.341Z,4.18
2018-05-28T17:37:10.540Z,4.22
2018-05-28T17:39:36.708Z,3.83
2018-05-28T17:42:02.916Z,3.67
2018-05-28T17:44:29.136Z,3.92
2018-05-28T17:46:55.315Z,4.00
2018-05-28T17:49:22.593Z,3.80
2018-05-28T17:51:48.732Z,4.12
2018-05-28T17:54:14.867Z,3.67
2018-05-28T17:56:41.029Z,4.35
2018-05-28T17:59:07.947Z,5.00
2018-05-28T18:01:34.099Z,4.22
2018-05-28T18:04:00.248Z,4.45
2018-05-28T18:06:27.136Z,4.90
2018-05-28T18:08:53.291Z,4.75
2018-05-28T18:11:19.431Z,4.97
2018-05-28T18:13:45.587Z,4.80
2018-05-28T18:16:12.459Z,4.80
2018-05-28T18:18:38.621Z,5.37
2018-05-28T18:21:04.804Z,5.22
2018-05-28T18:23:30.952Z,4.95
2018-05-28T18:25:57.115Z,5.50
2018-05-28T18:28:24.023Z,5.65
2018-05-28T18:30:50.175Z,5.20
2018-05-28T18:33:17.108Z,5.53
2018-05-28T18:35:43.274Z,6.15
2018-05-28T18:38:09.453Z,5.82
2018-05-28T18:40:35.692Z,5.78
2018-05-28T18:43:01.843Z,5.12
2018-05-28T18:45:28.004Z,5.75
2018-05-28T18:47:54.217Z,5.68
2018-05-28T18:50:21.103Z,5.43
2018-05-28T18:52:47.255Z,6.10
2018-05-28T18:55:13.487Z,5.55
2018-05-28T18:57:39.727Z,6.40
2018-05-28T19:00:06.676Z,5.20
2018-05-28T19:02:33.629Z,5.78
2018-05-28T19:05:00.534Z,6.22
2018-05-28T19:07:26.674Z,5.93
2018-05-28T19:09:53.159Z,6.03
2018-05-28T19:12:19.359Z,6.32
2018-05-28T19:14:45.519Z,6.32
2018-05-28T19:17:11.691Z,6.03
2018-05-28T19:19:38.592Z,6.47
2018-05-28T19:22:04.767Z,6.45
2018-05-28T19:24:31.648Z,6.10
2018-05-28T19:26:57.788Z,6.53
2018-05-28T19:29:23.968Z,6.15
2018-05-28T19:31:50.889Z,6.40
2018-05-28T19:34:17.027Z,6.30
2018-05-28T19:36:43.944Z,6.45
2018-05-28T19:39:10.875Z,6.57
2018-05-28T19:41:37.091Z,6.78
2018-05-28T19:44:03.270Z,7.17
2018-05-28T19:46:29.433Z,6.75
2018-05-28T19:48:55.597Z,6.63
2018-05-28T19:51:22.363Z,6.68
2018-05-28T19:53:48.591Z,6.10
2018-05-28T19:56:15.559Z,6.33
2018-05-28T19:58:41.755Z,6.67
2018-05-28T20:01:07.927Z,6.47
2018-05-28T20:03:34.247Z,6.27
2018-05-28T20:06:00.423Z,6.60
2018-05-28T20:08:27.380Z,7.30
2018-05-28T20:10:53.811Z,7.43
2018-05-28T20:13:19.969Z,7.17
2018-05-28T20:15:46.179Z,6.80
2018-05-28T20:18:13.081Z,6.47
2018-05-28T20:20:39.584Z,6.80
2018-05-28T20:23:05.787Z,6.50
2018-05-28T20:25:31.996Z,6.33
2018-05-28T20:27:58.927Z,6.70
2018-05-28T20:30:32.859Z,6.93
2018-05-28T20:32:59.072Z,7.57
2018-05-28T20:35:26.027Z,7.13
2018-05-28T20:37:52.274Z,7.40
2018-05-28T20:40:19.188Z,7.70
2018-05-28T20:42:45.359Z,6.40
2018-05-28T20:45:11.544Z,6.50
2018-05-28T20:47:38.480Z,7.13
2018-05-28T20:50:05.685Z,7.13
2018-05-28T20:52:31.851Z,6.60
2018-05-28T20:54:58.819Z,7.47
2018-05-28T20:57:24.997Z,7.40
2018-05-28T20:59:51.203Z,7.30
2018-05-28T21:02:17.387Z,7.90
2018-05-28T21:04:44.324Z,6.63
2018-05-28T21:07:11.361Z,7.77
2018-05-28T21:09:37.535Z,7.80
2018-05-28T21:12:04.458Z,7.27
2018-05-28T21:14:30.816Z,7.97
2018-05-28T21:16:57.007Z,8.47
2018-05-28T21:19:23.226Z,7.80
2018-05-28T21:21:50.173Z,8.00
2018-05-28T21:24:17.112Z,7.80
2018-05-28T21:26:43.288Z,7.33
2018-05-28T21:29:09.530Z,8.23
2018-05-28T21:31:35.759Z,7.70
2018-05-28T21:34:01.984Z,7.90
2018-05-28T21:36:29.132Z,8.37
2018-05-28T21:38:56.091Z,7.27
2018-05-28T21:41:22.308Z,7.57
2018-05-28T21:43:48.509Z,7.43
2018-05-28T21:46:15.455Z,8.53
2018-05-28T21:48:42.368Z,7.73
2018-05-28T21:51:08.556Z,8.10
2018-05-28T21:53:34.782Z,8.00
2018-05-28T21:56:00.971Z,8.53
2018-05-28T21:58:27.191Z,7.70
2018-05-28T22:00:53.379Z,8.03
2018-05-28T22:03:19.580Z,8.30
2018-05-28T22:05:45.795Z,9.60
2018-05-28T22:08:11.980Z,8.83
2018-05-28T22:10:38.212Z,8.67
2018-05-28T22:13:04.585Z,7.57
2018-05-28T22:15:31.508Z,9.03
2018-05-28T22:17:58.428Z,8.40
2018-05-28T22:20:24.619Z,8.00
2018-05-28T22:22:50.800Z,7.50
2018-05-28T22:25:17.739Z,9.23
2018-05-28T22:27:43.908Z,8.33
2018-05-28T22:30:10.840Z,9.17
2018-05-28T22:32:36.987Z,8.20
2018-05-28T22:35:03.173Z,9.00
2018-05-28T22:37:30.109Z,8.87
2018-05-28T22:39:56.317Z,8.77
2018-05-28T22:42:23.335Z,8.80
2018-05-28T22:44:49.479Z,9.17
2018-05-28T22:47:15.664Z,10.03
2018-05-28T22:49:41.855Z,10.13
2018-05-28T22:52:08.011Z,9.50
2018-05-28T22:54:34.188Z,9.97
2018-05-28T22:57:00.379Z,9.83
2018-05-28T22:59:27.267Z,10.77
2018-05-28T23:01:53.453Z,11.93
2018-05-28T23:04:19.640Z,10.60
2018-05-28T23:06:46.567Z,10.70
2018-05-28T23:09:12.750Z,11.20
2018-05-28T23:11:38.986Z,12.37
2018-05-28T23:14:05.184Z,11.67
2018-05-28T23:16:31.386Z,12.37
2018-05-28T23:18:57.580Z,12.70
2018-05-28T23:21:23.786Z,12.40
2018-05-28T23:23:49.958Z,13.80
2018-05-28T23:26:16.163Z,13.67
2018-05-28T23:28:42.345Z,15.63
2018-05-28T23:31:09.274Z,14.07
2018-05-28T23:33:36.220Z,14.13
2018-05-28T23:36:03.170Z,15.20
2018-05-28T23:38:29.370Z,16.00
2018-05-28T23:40:55.567Z,14.27
2018-05-28T23:43:21.762Z,15.40
2018-05-28T23:45:48.679Z,14.03
2018-05-28T23:48:15.611Z,14.80
2018-05-28T23:50:41.879Z,15.43
2018-05-28T23:53:08.832Z,14.27
2018-05-28T23:55:35.027Z,15.73
2018-05-28T23:58:01.228Z,15.93
